New Norfolk, Australia
Current Conditions -  °F | °C
As of 5:00 PM on Sunday 21 Dec 2014 (Local Time) from YMHB Reporting Station
Scattered Clouds Scattered Clouds  
Wind Chill: 66°   Ceiling: Unl
Heat Index: 66°   Visibility: 6mi
Dew Point: 54°   Wind: 22mph
Humidity: 64%   Direction: 170°S
Pressure: 29.8"   Gusts: NA
Location:  42.78°S, 147.06°E
Report Text: YMHB 210600Z 17019KT 9999 FEW050 SCT280 19/12 Q1009
Loading
Personal Weather Stations






























Interactive Weather Map New forecast layout! Learn more

10-Day Weather Forecast

Advertisements
Track Severe Weather on mobile